Time,TemperatureF,DewpointF,PressureIn,WindDirection,WindDirectionDegrees,WindSpeedMPH,WindSpeedGustMPH,Humidity,HourlyPrecipIn,Conditions,Clouds,dailyrainin,SoftwareType,DateUTC
2013-08-30 00:01:00,68.1,65.8,30.03,WSW,248,0.0,0.0,92,0.00,,,0.00,WSDL version 420,2013-08-30 04:01:00,
2013-08-30 00:03:00,68.1,65.7,30.03,WSW,248,0.0,0.0,92,0.00,,,0.00,WSDL version 420,2013-08-30 04:03:00,
2013-08-30 00:04:00,68.1,65.8,30.03,SW,236,0.0,0.0,92,0.00,,,0.00,WSDL version 420,2013-08-30 04:04:00,
2013-08-30 00:10:00,68.1,65.8,30.03,SW,225,0.0,0.0,92,0.00,,,0.00,WSDL version 420,2013-08-30 04:10:00,
2013-08-30 00:13:00,68.0,65.7,30.03,SW,225,0.0,0.0,92,0.00,,,0.00,WSDL version 420,2013-08-30 04:13:00,
2013-08-30 00:19:00,68.1,65.8,30.03,SW,225,0.0,0.0,92,0.00,,,0.00,WSDL version 420,2013-08-30 04:19:00,
2013-08-30 00:25:00,68.1,65.8,30.03,SW,225,0.0,1.1,92,0.00,,,0.00,WSDL version 420,2013-08-30 04:25:00,
2013-08-30 00:31:00,67.8,65.4,30.03,SSW,210,1.3,1.6,92,0.00,,,0.00,WSDL version 420,2013-08-30 04:31:00,
2013-08-30 00:38:00,67.5,65.1,30.03,ESE,105,0.3,1.6,91,0.00,,,0.00,WSDL version 420,2013-08-30 04:38:00,
2013-08-30 00:44:00,67.4,64.9,30.03,SSE,158,0.0,1.6,92,0.00,,,0.00,WSDL version 420,2013-08-30 04:44:00,
2013-08-30 00:50:00,67.3,64.6,30.03,SSW,203,0.0,1.6,91,0.00,,,0.00,WSDL version 420,2013-08-30 04:50:00,
2013-08-30 00:56:00,-999.0,-99.9,30.03,SSW,203,0.0,1.6,-999,0.00,,,0.00,WSDL version 420,2013-08-30 04:56:00,
2013-08-30 01:02:00,67.3,64.9,30.03,SSW,203,0.4,2.5,92,0.00,,,0.00,WSDL version 420,2013-08-30 05:02:00,
2013-08-30 01:08:00,-999.0,-99.9,30.03,SSW,195,0.9,2.5,-999,0.00,,,0.00,WSDL version 420,2013-08-30 05:08:00,
2013-08-30 01:14:00,67.2,64.9,30.03,SSE,158,1.0,1.6,92,0.00,,,0.00,WSDL version 420,2013-08-30 05:14:00,
2013-08-30 01:20:00,67.3,64.9,30.03,SSE,158,0.0,1.1,92,0.00,,,0.00,WSDL version 420,2013-08-30 05:20:00,
2013-08-30 01:26:00,67.4,65.0,30.03,SE,135,0.0,1.6,92,0.00,,,0.00,WSDL version 420,2013-08-30 05:26:00,
2013-08-30 01:32:00,67.1,64.8,30.00,SSW,203,0.0,1.6,92,0.00,,,0.00,WSDL version 420,2013-08-30 05:32:00,
2013-08-30 01:38:00,67.2,64.9,30.00,NE,45,0.0,2.0,92,0.00,,,0.00,WSDL version 420,2013-08-30 05:38:00,
2013-08-30 01:44:00,67.3,64.9,30.00,SSE,158,0.0,2.0,92,0.00,,,0.00,WSDL version 420,2013-08-30 05:44:00,
2013-08-30 01:50:00,67.0,64.5,30.00,SSE,158,0.6,2.5,91,0.00,,,0.00,WSDL version 420,2013-08-30 05:50:00,
2013-08-30 01:56:00,66.9,64.6,30.00,NE,45,0.0,2.5,92,0.00,,,0.00,WSDL version 420,2013-08-30 05:56:00,
2013-08-30 02:02:00,67.0,64.6,30.00,ENE,75,0.0,0.0,92,0.00,,,0.00,WSDL version 420,2013-08-30 06:02:00,
2013-08-30 02:08:00,67.1,64.8,30.00,ENE,75,2.1,2.2,92,0.00,,,0.00,WSDL version 420,2013-08-30 06:08:00,
2013-08-30 02:14:00,67.1,64.8,30.00,SSE,152,0.0,2.5,92,0.00,,,0.00,WSDL version 420,2013-08-30 06:14:00,
2013-08-30 02:20:00,67.0,64.5,30.00,NNE,23,0.0,2.5,91,0.00,,,0.00,WSDL version 420,2013-08-30 06:20:00,
2013-08-30 02:26:00,66.9,64.2,30.00,NE,34,1.0,2.0,91,0.00,,,0.00,WSDL version 420,2013-08-30 06:26:00,
2013-08-30 02:32:00,67.0,64.6,30.00,North,360,0.0,2.0,92,0.00,,,0.00,WSDL version 420,2013-08-30 06:32:00,
2013-08-30 02:38:00,66.9,64.6,30.00,NE,45,0.0,0.0,92,0.00,,,0.00,WSDL version 420,2013-08-30 06:38:00,
2013-08-30 02:44:00,66.8,64.5,30.00,NE,45,0.0,0.0,92,0.00,,,0.00,WSDL version 420,2013-08-30 06:44:00,
2013-08-30 02:50:00,66.6,64.2,30.00,East,90,0.0,0.0,92,0.00,,,0.00,WSDL version 420,2013-08-30 06:50:00,
2013-08-30 02:56:00,66.7,64.4,30.00,WSW,248,0.0,0.0,92,0.00,,,0.00,WSDL version 420,2013-08-30 06:56:00,
2013-08-30 03:02:00,66.6,64.2,30.00,WNW,293,0.0,0.0,92,0.00,,,0.00,WSDL version 420,2013-08-30 07:02:00,
2013-08-30 03:08:00,66.4,64.1,30.00,SW,231,1.5,2.5,92,0.00,,,0.00,WSDL version 420,2013-08-30 07:08:00,
2013-08-30 03:14:00,66.4,64.1,30.00,SW,233,0.4,2.5,92,0.00,,,0.00,WSDL version 420,2013-08-30 07:14:00,
2013-08-30 03:20:00,66.3,63.9,30.00,SSE,158,0.0,2.2,92,0.00,,,0.00,WSDL version 420,2013-08-30 07:20:00,
2013-08-30 03:26:00,66.4,64.3,30.00,SW,225,0.0,0.9,93,0.00,,,0.00,WSDL version 420,2013-08-30 07:26:00,
2013-08-30 03:32:00,66.6,64.5,30.00,SW,225,0.0,0.9,92,0.00,,,0.00,WSDL version 420,2013-08-30 07:32:00,
2013-08-30 03:38:00,66.4,64.1,30.00,SW,225,0.0,0.0,92,0.00,,,0.00,WSDL version 420,2013-08-30 07:38:00,
2013-08-30 03:44:00,66.3,64.3,29.97,SE,146,0.0,0.0,93,0.00,,,0.00,WSDL version 420,2013-08-30 07:44:00,
2013-08-30 03:50:00,66.4,64.4,29.97,SW,225,1.0,2.0,93,0.00,,,0.00,WSDL version 420,2013-08-30 07:50:00,
2013-08-30 03:57:00,66.2,64.1,29.97,South,180,0.0,2.0,93,0.00,,,0.00,WSDL version 420,2013-08-30 07:57:00,
2013-08-30 04:03:00,66.3,64.3,29.97,SW,225,0.0,0.0,93,0.00,,,0.00,WSDL version 420,2013-08-30 08:03:00,
2013-08-30 04:09:00,66.4,64.4,29.97,SW,233,0.9,1.3,93,0.00,,,0.00,WSDL version 420,2013-08-30 08:09:00,
2013-08-30 04:15:00,66.2,64.2,29.97,West,263,0.0,1.6,93,0.00,,,0.00,WSDL version 420,2013-08-30 08:15:00,
2013-08-30 04:21:00,66.0,64.0,29.97,WSW,248,0.0,1.6,93,0.00,,,0.00,WSDL version 420,2013-08-30 08:21:00,
2013-08-30 04:27:00,66.1,64.2,29.97,WSW,248,0.0,0.0,93,0.00,,,0.00,WSDL version 420,2013-08-30 08:27:00,
2013-08-30 04:33:00,66.2,64.2,29.97,SSE,158,0.0,0.0,93,0.00,,,0.00,WSDL version 420,2013-08-30 08:33:00,
2013-08-30 04:39:00,66.1,64.2,29.97,WSW,248,0.0,0.0,93,0.00,,,0.00,WSDL version 420,2013-08-30 08:39:00,
2013-08-30 04:45:00,66.0,64.2,29.97,WSW,248,0.0,0.0,94,0.00,,,0.00,WSDL version 420,2013-08-30 08:45:00,
2013-08-30 04:51:00,66.2,64.3,29.97,ESE,117,0.2,0.9,93,0.00,,,0.00,WSDL version 420,2013-08-30 08:51:00,
2013-08-30 04:57:00,66.3,64.6,29.97,SE,135,0.0,0.9,94,0.00,,,0.00,WSDL version 420,2013-08-30 08:57:00,
2013-08-30 05:03:00,66.3,64.6,29.97,West,270,0.0,0.0,93,0.00,,,0.00,WSDL version 420,2013-08-30 09:03:00,
2013-08-30 05:09:00,66.4,64.6,29.97,NNE,23,0.0,0.0,93,0.00,,,0.00,WSDL version 420,2013-08-30 09:09:00,
2013-08-30 05:15:00,66.3,64.6,29.97,North,360,0.0,0.0,93,0.00,,,0.00,WSDL version 420,2013-08-30 09:15:00,
2013-08-30 05:21:00,66.4,64.7,29.97,SW,225,0.0,0.0,94,0.00,,,0.00,WSDL version 420,2013-08-30 09:21:00,
2013-08-30 05:27:00,66.4,64.7,29.97,WSW,240,0.6,0.9,94,0.00,,,0.00,WSDL version 420,2013-08-30 09:27:00,
2013-08-30 05:33:00,66.2,64.4,29.97,SW,236,0.0,0.9,94,0.00,,,0.00,WSDL version 420,2013-08-30 09:33:00,
2013-08-30 05:39:00,66.1,64.4,29.97,South,180,0.0,0.0,94,0.00,,,0.00,WSDL version 420,2013-08-30 09:39:00,
2013-08-30 05:45:00,66.3,64.6,29.97,WSW,248,0.0,0.0,94,0.00,,,0.00,WSDL version 420,2013-08-30 09:45:00,
2013-08-30 05:51:00,66.2,64.6,29.97,WSW,248,0.0,0.0,94,0.00,,,0.00,WSDL version 420,2013-08-30 09:51:00,
2013-08-30 05:57:00,66.3,64.7,29.97,SE,135,0.0,2.7,94,0.00,,,0.00,WSDL version 420,2013-08-30 09:57:00,
2013-08-30 06:03:00,66.4,65.1,29.97,South,180,0.0,2.7,96,0.00,,,0.00,WSDL version 420,2013-08-30 10:03:00,
2013-08-30 06:09:00,66.4,65.1,29.97,South,180,0.0,0.0,96,0.00,,,0.00,WSDL version 420,2013-08-30 10:09:00,
2013-08-30 06:15:00,66.4,65.1,29.97,SSW,203,0.0,0.0,96,0.00,,,0.00,WSDL version 420,2013-08-30 10:15:00,
2013-08-30 06:21:00,66.6,65.3,29.97,SSW,203,0.0,0.0,96,0.00,,,0.00,WSDL version 420,2013-08-30 10:21:00,
2013-08-30 06:27:00,66.6,65.3,29.97,SSW,203,0.0,0.0,96,0.00,,,0.00,WSDL version 420,2013-08-30 10:27:00,
2013-08-30 06:33:00,66.5,65.2,29.97,SSW,203,0.0,0.0,96,0.00,,,0.00,WSDL version 420,2013-08-30 10:33:00,
2013-08-30 06:39:00,66.6,65.3,29.97,SSW,203,0.0,0.0,96,0.00,,,0.00,WSDL version 420,2013-08-30 10:39:00,
2013-08-30 06:45:00,66.7,65.4,30.00,SSW,203,0.0,0.0,96,0.00,,,0.00,WSDL version 420,2013-08-30 10:45:00,
2013-08-30 06:51:00,66.7,65.4,30.00,SSW,203,0.0,0.0,96,0.00,,,0.00,WSDL version 420,2013-08-30 10:51:00,
2013-08-30 06:57:00,66.7,65.4,30.00,SSW,203,0.0,0.0,96,0.00,,,0.00,WSDL version 420,2013-08-30 10:57:00,
2013-08-30 07:04:00,66.8,65.5,30.00,SSW,203,0.0,0.0,96,0.00,,,0.00,WSDL version 420,2013-08-30 11:04:00,
2013-08-30 07:10:00,66.9,65.6,30.00,SSW,203,0.0,0.0,96,0.00,,,0.00,WSDL version 420,2013-08-30 11:10:00,
2013-08-30 07:16:00,66.9,65.6,30.00,SSW,203,0.0,0.0,96,0.00,,,0.00,WSDL version 420,2013-08-30 11:16:00,
2013-08-30 07:22:00,66.9,65.9,30.00,SW,225,0.0,0.0,97,0.00,,,0.00,WSDL version 420,2013-08-30 11:22:00,
2013-08-30 07:28:00,66.8,65.5,29.97,SW,225,0.0,0.0,96,0.00,,,0.00,WSDL version 420,2013-08-30 11:28:00,
2013-08-30 07:34:00,66.9,65.5,29.97,South,173,0.0,0.0,96,0.00,,,0.00,WSDL version 420,2013-08-30 11:34:00,
2013-08-30 07:40:00,66.9,65.9,29.97,SSW,210,0.5,1.6,97,0.00,,,0.00,WSDL version 420,2013-08-30 11:40:00,
2013-08-30 07:46:00,67.1,66.0,29.97,South,191,0.0,1.6,97,0.00,,,0.00,WSDL version 420,2013-08-30 11:46:00,
2013-08-30 07:52:00,67.2,66.2,29.97,SW,225,0.0,0.0,97,0.00,,,0.00,WSDL version 420,2013-08-30 11:52:00,
2013-08-30 07:58:00,67.5,66.3,30.00,SSW,195,0.0,0.0,96,0.00,,,0.00,WSDL version 420,2013-08-30 11:58:00,
2013-08-30 08:04:00,67.5,66.1,30.00,SE,135,0.0,0.0,96,0.00,,,0.00,WSDL version 420,2013-08-30 12:04:00,
2013-08-30 08:10:00,67.6,66.5,30.00,SW,236,0.0,0.0,97,0.00,,,0.00,WSDL version 420,2013-08-30 12:10:00,
2013-08-30 08:16:00,67.9,66.7,30.00,SSE,158,0.0,0.0,96,0.00,,,0.00,WSDL version 420,2013-08-30 12:16:00,
2013-08-30 08:22:00,68.0,66.7,30.00,SE,135,0.9,1.3,96,0.00,,,0.00,WSDL version 420,2013-08-30 12:22:00,
2013-08-30 08:28:00,68.2,66.9,30.00,SE,141,0.0,1.3,96,0.00,,,0.00,WSDL version 420,2013-08-30 12:28:00,
2013-08-30 08:34:00,68.4,67.0,30.00,South,180,0.0,2.7,94,0.00,,,0.00,WSDL version 420,2013-08-30 12:34:00,
2013-08-30 08:40:00,68.5,67.2,30.00,South,180,0.0,2.7,96,0.00,,,0.00,WSDL version 420,2013-08-30 12:40:00,
2013-08-30 08:46:00,68.5,66.9,29.97,NNE,23,0.0,2.5,94,0.00,,,0.00,WSDL version 420,2013-08-30 12:46:00,
2013-08-30 08:52:00,68.8,67.1,29.97,WSW,248,0.0,2.5,94,0.00,,,0.00,WSDL version 420,2013-08-30 12:52:00,
2013-08-30 08:58:00,69.1,67.4,29.97,WNW,288,0.0,0.0,94,0.00,,,0.00,WSDL version 420,2013-08-30 12:58:00,
2013-08-30 09:04:00,69.4,67.7,29.97,South,169,0.0,2.0,94,0.00,,,0.00,WSDL version 420,2013-08-30 13:04:00,
2013-08-30 09:10:00,69.6,67.6,29.97,SSW,210,1.9,2.9,93,0.00,,,0.00,WSDL version 420,2013-08-30 13:10:00,
2013-08-30 09:16:00,69.7,67.7,29.97,SSW,203,0.0,2.9,93,0.00,,,0.00,WSDL version 420,2013-08-30 13:16:00,
2013-08-30 09:22:00,69.8,67.4,29.97,South,180,0.0,3.4,92,0.00,,,0.00,WSDL version 420,2013-08-30 13:22:00,
2013-08-30 09:28:00,70.0,67.6,29.97,SSE,165,0.7,2.0,92,0.00,,,0.00,WSDL version 420,2013-08-30 13:28:00,
2013-08-30 09:34:00,70.2,67.8,29.97,SSE,158,1.4,2.2,92,0.00,,,0.00,WSDL version 420,2013-08-30 13:34:00,
2013-08-30 09:40:00,70.5,68.1,29.97,SSE,165,0.9,2.2,92,0.00,,,0.00,WSDL version 420,2013-08-30 13:40:00,
2013-08-30 09:46:00,70.8,68.4,29.97,SW,219,1.8,2.9,92,0.00,,,0.00,WSDL version 420,2013-08-30 13:46:00,
2013-08-30 09:52:00,70.8,68.0,29.97,SSE,158,0.6,2.9,91,0.00,,,0.00,WSDL version 420,2013-08-30 13:52:00,
2013-08-30 09:58:00,71.1,68.4,29.97,SSW,195,0.0,3.6,91,0.00,,,0.00,WSDL version 420,2013-08-30 13:58:00,
2013-08-30 10:05:00,71.5,68.8,29.97,South,173,1.0,3.6,91,0.00,,,0.00,WSDL version 420,2013-08-30 14:05:00,
2013-08-30 10:11:00,71.7,68.6,29.97,NW,315,0.4,2.5,90,0.00,,,0.00,WSDL version 420,2013-08-30 14:11:00,
2013-08-30 10:17:00,72.1,69.0,29.97,SW,225,0.6,2.0,90,0.00,,,0.00,WSDL version 420,2013-08-30 14:17:00,
2013-08-30 10:23:00,72.1,69.0,29.97,ESE,118,1.0,1.6,90,0.00,,,0.00,WSDL version 420,2013-08-30 14:23:00,
2013-08-30 10:29:00,72.5,69.2,29.97,NNW,338,0.7,2.0,89,0.00,,,0.00,WSDL version 420,2013-08-30 14:29:00,
2013-08-30 10:35:00,72.9,69.4,29.97,South,180,0.5,2.2,89,0.00,,,0.00,WSDL version 420,2013-08-30 14:35:00,
2013-08-30 10:41:00,73.2,69.7,29.97,South,180,1.0,3.1,89,0.00,,,0.00,WSDL version 420,2013-08-30 14:41:00,
2013-08-30 10:47:00,73.0,69.2,29.97,South,180,0.4,3.1,88,0.00,,,0.00,WSDL version 420,2013-08-30 14:47:00,
2013-08-30 10:53:00,73.4,69.4,29.97,SE,143,2.7,2.9,87,0.00,,,0.00,WSDL version 420,2013-08-30 14:53:00,
2013-08-30 10:59:00,73.6,69.4,29.97,SE,135,0.7,4.5,87,0.00,,,0.00,WSDL version 420,2013-08-30 14:59:00,
2013-08-30 11:05:00,74.1,69.8,29.97,SW,225,0.0,2.0,87,0.00,,,0.00,WSDL version 420,2013-08-30 15:05:00,
2013-08-30 11:11:00,74.4,69.9,29.97,South,180,0.0,1.1,86,0.00,,,0.00,WSDL version 420,2013-08-30 15:11:00,
2013-08-30 11:17:00,74.2,69.4,29.97,SE,143,1.3,2.0,84,0.00,,,0.00,WSDL version 420,2013-08-30 15:17:00,
2013-08-30 11:23:00,74.3,69.5,29.97,SSW,203,0.0,2.9,84,0.00,,,0.00,WSDL version 420,2013-08-30 15:23:00,
2013-08-30 11:29:00,74.1,69.5,29.97,South,180,0.0,2.9,86,0.00,,,0.00,WSDL version 420,2013-08-30 15:29:00,
2013-08-30 11:35:00,74.1,69.3,29.97,South,188,0.9,2.2,86,0.00,,,0.00,WSDL version 420,2013-08-30 15:35:00,
2013-08-30 11:41:00,74.1,69.1,29.97,SE,135,1.3,2.9,84,0.00,,,0.00,WSDL version 420,2013-08-30 15:41:00,
2013-08-30 11:47:00,74.3,69.3,29.97,SE,124,1.3,2.9,84,0.00,,,0.00,WSDL version 420,2013-08-30 15:47:00,
2013-08-30 11:53:00,74.7,69.7,29.97,SSE,158,1.2,2.0,84,0.00,,,0.00,WSDL version 420,2013-08-30 15:53:00,
2013-08-30 11:59:00,74.7,69.7,29.94,SW,225,1.9,2.9,84,0.00,,,0.00,WSDL version 420,2013-08-30 15:59:00,
2013-08-30 12:05:00,75.5,69.8,29.94,WNW,300,0.7,2.9,82,0.00,,,0.00,WSDL version 420,2013-08-30 16:05:00,
2013-08-30 12:11:00,77.2,70.8,29.94,ESE,113,2.5,2.9,80,0.00,,,0.00,WSDL version 420,2013-08-30 16:11:00,
2013-08-30 12:17:00,77.6,70.6,29.94,ESE,105,2.5,3.4,79,0.00,,,0.00,WSDL version 420,2013-08-30 16:17:00,
2013-08-30 12:23:00,77.6,70.1,29.94,SE,135,1.3,3.6,77,0.00,,,0.00,WSDL version 420,2013-08-30 16:23:00,
2013-08-30 12:29:00,77.6,69.7,29.94,East,90,0.9,3.6,76,0.00,,,0.00,WSDL version 420,2013-08-30 16:29:00,
2013-08-30 12:35:00,78.4,69.9,29.94,ESE,120,1.3,3.6,75,0.00,,,0.00,WSDL version 420,2013-08-30 16:35:00,
2013-08-30 12:41:00,77.8,69.5,29.94,SSE,165,0.8,2.7,76,0.00,,,0.00,WSDL version 420,2013-08-30 16:41:00,
2013-08-30 12:47:00,78.1,70.1,29.94,East,83,1.0,2.7,76,0.00,,,0.00,WSDL version 420,2013-08-30 16:47:00,
2013-08-30 12:53:00,78.1,69.4,29.94,West,270,0.9,2.9,72,0.00,,,0.00,WSDL version 420,2013-08-30 16:53:00,
2013-08-30 12:59:00,79.6,69.4,29.94,NNE,23,0.4,3.1,72,0.00,,,0.00,WSDL version 420,2013-08-30 16:59:00,
2013-08-30 13:05:00,80.2,70.9,29.94,SSW,210,1.3,4.0,73,0.00,,,0.00,WSDL version 420,2013-08-30 17:05:00,
2013-08-30 13:12:00,79.7,70.3,29.94,ESE,113,1.7,4.0,72,0.00,,,0.00,WSDL version 420,2013-08-30 17:12:00,
2013-08-30 13:18:00,79.6,69.5,29.94,ENE,62,0.8,2.5,72,0.00,,,0.00,WSDL version 420,2013-08-30 17:18:00,
2013-08-30 13:24:00,80.3,69.6,29.94,SSE,150,2.0,4.3,69,0.00,,,0.00,WSDL version 420,2013-08-30 17:24:00,
2013-08-30 13:30:00,80.1,69.3,29.91,ESE,105,1.5,4.3,69,0.00,,,0.00,WSDL version 420,2013-08-30 17:30:00,
2013-08-30 13:36:00,80.5,69.5,29.91,NW,315,1.6,3.1,70,0.00,,,0.00,WSDL version 420,2013-08-30 17:36:00,
2013-08-30 13:42:00,80.7,69.6,29.91,ESE,113,0.5,3.1,67,0.00,,,0.00,WSDL version 420,2013-08-30 17:42:00,
2013-08-30 13:48:00,81.4,69.4,29.91,SSE,150,1.6,3.1,66,0.00,,,0.00,WSDL version 420,2013-08-30 17:48:00,
2013-08-30 13:54:00,81.1,68.7,29.91,NNE,23,2.0,3.1,66,0.00,,,0.00,WSDL version 420,2013-08-30 17:54:00,
2013-08-30 14:00:00,81.6,69.7,29.91,NE,45,2.5,2.9,67,0.00,,,0.00,WSDL version 420,2013-08-30 18:00:00,
2013-08-30 14:06:00,81.9,69.4,29.91,NNE,30,2.1,3.1,65,0.00,,,0.00,WSDL version 420,2013-08-30 18:06:00,
2013-08-30 14:12:00,82.5,69.8,29.91,South,186,0.4,3.1,64,0.00,,,0.00,WSDL version 420,2013-08-30 18:12:00,
2013-08-30 14:18:00,81.5,69.0,29.91,SW,233,0.0,1.6,67,0.00,,,0.00,WSDL version 420,2013-08-30 18:18:00,
2013-08-30 14:24:00,81.5,69.1,29.91,West,278,1.3,4.0,66,0.00,,,0.00,WSDL version 420,2013-08-30 18:24:00,
2013-08-30 14:30:00,82.3,69.5,29.91,North,353,1.1,4.0,65,0.00,,,0.00,WSDL version 420,2013-08-30 18:30:00,
2013-08-30 14:36:00,82.5,69.9,29.91,SSE,158,1.2,3.8,66,0.00,,,0.00,WSDL version 420,2013-08-30 18:36:00,
2013-08-30 14:42:00,82.5,70.0,29.91,ENE,75,0.7,2.7,67,0.00,,,0.00,WSDL version 420,2013-08-30 18:42:00,
2013-08-30 14:48:00,82.0,69.4,29.91,WNW,293,0.0,2.5,67,0.00,,,0.00,WSDL version 420,2013-08-30 18:48:00,
2013-08-30 14:54:00,81.9,68.5,29.91,NNE,23,3.1,3.8,64,0.00,,,0.00,WSDL version 420,2013-08-30 18:54:00,
2013-08-30 15:00:00,82.0,68.6,29.91,SE,141,1.9,3.8,64,0.00,,,0.00,WSDL version 420,2013-08-30 19:00:00,
2013-08-30 15:06:00,82.2,68.8,29.91,ENE,75,0.4,3.8,63,0.00,,,0.00,WSDL version 420,2013-08-30 19:06:00,
2013-08-30 15:12:00,82.1,69.0,29.91,ENE,60,2.8,2.9,64,0.00,,,0.00,WSDL version 420,2013-08-30 19:12:00,
2013-08-30 15:18:00,82.5,69.1,29.91,West,278,0.8,3.4,63,0.00,,,0.00,WSDL version 420,2013-08-30 19:18:00,
2013-08-30 15:24:00,81.6,68.7,29.91,WNW,300,0.3,3.4,67,0.00,,,0.00,WSDL version 420,2013-08-30 19:24:00,
2013-08-30 15:30:00,81.3,69.3,29.91,SW,233,0.4,1.3,67,0.00,,,0.00,WSDL version 420,2013-08-30 19:30:00,
2013-08-30 15:36:00,81.0,68.5,29.91,SE,146,1.3,2.9,65,0.00,,,0.00,WSDL version 420,2013-08-30 19:36:00,
2013-08-30 15:42:00,80.3,68.1,29.91,South,173,0.4,2.9,66,0.00,,,0.00,WSDL version 420,2013-08-30 19:42:00,
2013-08-30 15:48:00,80.2,68.3,29.91,SW,225,1.3,2.7,67,0.00,,,0.00,WSDL version 420,2013-08-30 19:48:00,
2013-08-30 15:54:00,79.9,68.3,29.91,WSW,248,0.0,1.3,69,0.00,,,0.00,WSDL version 420,2013-08-30 19:54:00,
2013-08-30 16:00:00,79.5,68.3,29.91,SSE,165,0.7,3.1,67,0.00,,,0.00,WSDL version 420,2013-08-30 20:00:00,
2013-08-30 16:06:00,79.2,69.4,29.91,SSW,208,0.0,3.1,72,0.00,,,0.00,WSDL version 420,2013-08-30 20:06:00,
2013-08-30 16:13:00,79.2,68.3,29.91,East,90,1.6,2.7,69,0.00,,,0.00,WSDL version 420,2013-08-30 20:13:00,
2013-08-30 16:19:00,79.2,68.5,29.91,West,270,1.0,2.7,72,0.00,,,0.00,WSDL version 420,2013-08-30 20:19:00,
2013-08-30 16:25:00,78.0,68.7,29.91,West,270,0.0,2.2,74,0.00,,,0.00,WSDL version 420,2013-08-30 20:25:00,
2013-08-30 16:31:00,78.0,68.7,29.91,South,173,1.0,1.6,73,0.00,,,0.00,WSDL version 420,2013-08-30 20:31:00,
2013-08-30 16:37:00,78.1,68.3,29.91,SW,225,0.2,1.6,73,0.00,,,0.00,WSDL version 420,2013-08-30 20:37:00,
2013-08-30 16:43:00,77.5,68.4,29.88,West,270,0.0,0.9,74,0.00,,,0.00,WSDL version 420,2013-08-30 20:43:00,
2013-08-30 16:49:00,77.2,68.6,29.88,WSW,240,0.0,0.0,75,0.00,,,0.00,WSDL version 420,2013-08-30 20:49:00,
2013-08-30 16:55:00,76.8,68.9,29.88,WSW,248,0.0,0.0,77,0.00,,,0.00,WSDL version 420,2013-08-30 20:55:00,
2013-08-30 17:01:00,76.9,68.9,29.88,SW,225,0.0,2.7,77,0.00,,,0.00,WSDL version 420,2013-08-30 21:01:00,
2013-08-30 17:07:00,76.8,68.9,29.88,WSW,253,0.0,2.7,77,0.00,,,0.00,WSDL version 420,2013-08-30 21:07:00,
2013-08-30 17:13:00,76.6,68.8,29.88,WSW,255,0.0,2.2,77,0.00,,,0.00,WSDL version 420,2013-08-30 21:13:00,
2013-08-30 17:19:00,76.3,68.5,29.88,WNW,293,0.0,2.2,77,0.00,,,0.00,WSDL version 420,2013-08-30 21:19:00,
2013-08-30 17:25:00,76.2,68.6,29.88,West,270,0.0,1.1,78,0.00,,,0.00,WSDL version 420,2013-08-30 21:25:00,
2013-08-30 17:31:00,76.0,68.8,29.88,West,270,0.0,1.1,78,0.00,,,0.00,WSDL version 420,2013-08-30 21:31:00,
2013-08-30 17:37:00,75.7,68.5,29.88,West,270,0.0,0.9,79,0.00,,,0.00,WSDL version 420,2013-08-30 21:37:00,
2013-08-30 17:43:00,75.6,68.6,29.88,SW,233,1.2,1.3,79,0.00,,,0.00,WSDL version 420,2013-08-30 21:43:00,
2013-08-30 17:49:00,75.4,68.7,29.88,WSW,248,0.0,1.6,80,0.00,,,0.00,WSDL version 420,2013-08-30 21:49:00,
2013-08-30 17:55:00,75.3,69.0,29.88,WSW,248,0.0,0.0,81,0.00,,,0.00,WSDL version 420,2013-08-30 21:55:00,
2013-08-30 18:01:00,75.1,69.2,29.85,WSW,248,0.0,0.0,82,0.00,,,0.00,WSDL version 420,2013-08-30 22:01:00,
2013-08-30 18:07:00,75.0,69.2,29.85,WSW,248,0.0,0.0,82,0.00,,,0.00,WSDL version 420,2013-08-30 22:07:00,
2013-08-30 18:13:00,74.8,69.4,29.85,WSW,248,0.0,1.3,83,0.00,,,0.00,WSDL version 420,2013-08-30 22:13:00,
2013-08-30 18:19:00,74.7,69.7,29.85,WSW,248,0.0,1.1,84,0.00,,,0.00,WSDL version 420,2013-08-30 22:19:00,
2013-08-30 18:25:00,74.6,70.0,29.85,WSW,248,0.0,1.1,86,0.00,,,0.00,WSDL version 420,2013-08-30 22:25:00,
2013-08-30 18:31:00,74.4,69.8,29.85,WSW,248,0.0,0.0,86,0.00,,,0.00,WSDL version 420,2013-08-30 22:31:00,
2013-08-30 18:37:00,74.2,70.0,29.85,WSW,248,0.0,0.0,87,0.00,,,0.00,WSDL version 420,2013-08-30 22:37:00,
2013-08-30 18:43:00,74.1,69.9,29.85,WSW,248,0.0,0.0,87,0.00,,,0.00,WSDL version 420,2013-08-30 22:43:00,
2013-08-30 18:49:00,73.9,69.6,29.85,WSW,248,0.0,0.0,87,0.00,,,0.00,WSDL version 420,2013-08-30 22:49:00,
2013-08-30 18:55:00,73.8,69.4,29.85,SW,225,0.0,0.0,87,0.00,,,0.00,WSDL version 420,2013-08-30 22:55:00,
2013-08-30 19:01:00,73.8,69.5,29.85,WSW,248,0.0,0.0,87,0.00,,,0.00,WSDL version 420,2013-08-30 23:01:00,
2013-08-30 19:07:00,73.5,69.4,29.85,WSW,248,0.0,0.0,88,0.00,,,0.00,WSDL version 420,2013-08-30 23:07:00,
2013-08-30 19:14:00,73.4,69.4,29.85,WSW,248,0.0,0.0,88,0.00,,,0.00,WSDL version 420,2013-08-30 23:14:00,
2013-08-30 19:20:00,73.2,69.4,29.85,WSW,248,0.0,0.0,88,0.00,,,0.00,WSDL version 420,2013-08-30 23:20:00,
2013-08-30 19:26:00,73.0,69.4,29.85,WSW,248,0.0,0.0,89,0.00,,,0.00,WSDL version 420,2013-08-30 23:26:00,
2013-08-30 19:32:00,72.7,69.2,29.85,WSW,248,0.0,0.0,89,0.00,,,0.00,WSDL version 420,2013-08-30 23:32:00,
2013-08-30 19:38:00,72.5,69.0,29.85,WSW,248,0.0,0.0,89,0.00,,,0.00,WSDL version 420,2013-08-30 23:38:00,
2013-08-30 19:44:00,72.3,68.9,29.85,WSW,248,0.0,0.0,89,0.00,,,0.00,WSDL version 420,2013-08-30 23:44:00,
2013-08-30 19:50:00,72.2,69.1,29.85,WSW,248,0.0,0.0,90,0.00,,,0.00,WSDL version 420,2013-08-30 23:50:00,
2013-08-30 19:56:00,72.1,69.0,29.85,WSW,248,0.0,0.0,90,0.00,,,0.00,WSDL version 420,2013-08-30 23:56:00,
2013-08-30 20:02:00,71.8,68.9,29.85,WSW,248,0.0,0.0,91,0.00,,,0.00,WSDL version 420,2013-08-31 00:02:00,
2013-08-30 20:08:00,71.6,68.9,29.85,WSW,248,0.0,0.0,91,0.00,,,0.00,WSDL version 420,2013-08-31 00:08:00,
2013-08-30 20:14:00,71.4,68.7,29.85,WSW,248,0.0,0.0,91,0.00,,,0.00,WSDL version 420,2013-08-31 00:14:00,
2013-08-30 20:20:00,71.2,68.4,29.85,WSW,248,0.0,0.0,91,0.00,,,0.00,WSDL version 420,2013-08-31 00:20:00,
2013-08-30 20:26:00,71.2,68.9,29.85,WSW,248,0.0,0.0,92,0.00,,,0.00,WSDL version 420,2013-08-31 00:26:00,
2013-08-30 20:32:00,70.9,68.5,29.85,WSW,248,0.0,0.0,92,0.00,,,0.00,WSDL version 420,2013-08-31 00:32:00,
2013-08-30 20:38:00,70.8,68.5,29.85,WSW,248,0.0,0.0,92,0.00,,,0.00,WSDL version 420,2013-08-31 00:38:00,
2013-08-30 20:44:00,70.7,68.3,29.88,WSW,248,0.0,0.0,92,0.00,,,0.00,WSDL version 420,2013-08-31 00:44:00,
2013-08-30 20:50:00,70.5,68.2,29.88,WSW,248,0.0,0.0,92,0.00,,,0.00,WSDL version 420,2013-08-31 00:50:00,
2013-08-30 20:56:00,70.3,68.0,29.88,WSW,248,0.0,0.0,92,0.00,,,0.00,WSDL version 420,2013-08-31 00:56:00,
2013-08-30 21:02:00,70.3,67.9,29.88,WSW,248,0.0,0.0,92,0.00,,,0.00,WSDL version 420,2013-08-31 01:02:00,
2013-08-30 21:08:00,70.2,67.8,29.88,WSW,248,0.0,0.0,92,0.00,,,0.00,WSDL version 420,2013-08-31 01:08:00,
2013-08-30 21:14:00,70.2,68.2,29.88,WSW,248,0.0,0.0,93,0.00,,,0.00,WSDL version 420,2013-08-31 01:14:00,
2013-08-30 21:20:00,70.5,68.4,29.88,WSW,248,0.0,0.0,93,0.00,,,0.00,WSDL version 420,2013-08-31 01:20:00,
2013-08-30 21:26:00,70.3,68.2,29.88,WSW,248,0.0,0.0,93,0.00,,,0.00,WSDL version 420,2013-08-31 01:26:00,
2013-08-30 21:32:00,70.3,68.3,29.88,WSW,248,0.0,0.0,93,0.00,,,0.00,WSDL version 420,2013-08-31 01:32:00,
2013-08-30 21:38:00,70.3,68.3,29.88,WSW,248,0.0,0.0,93,0.00,,,0.00,WSDL version 420,2013-08-31 01:38:00,
2013-08-30 21:44:00,70.0,68.0,29.88,WSW,248,0.0,0.0,93,0.00,,,0.00,WSDL version 420,2013-08-31 01:44:00,
2013-08-30 21:51:00,70.1,68.1,29.88,WSW,248,0.0,0.0,93,0.00,,,0.00,WSDL version 420,2013-08-31 01:51:00,
2013-08-30 21:57:00,70.1,68.1,29.88,WSW,248,0.0,0.0,93,0.00,,,0.00,WSDL version 420,2013-08-31 01:57:00,
2013-08-30 22:03:00,70.0,68.0,29.88,WSW,248,0.0,0.0,93,0.00,,,0.00,WSDL version 420,2013-08-31 02:03:00,
2013-08-30 22:09:00,70.2,68.2,29.88,WSW,248,0.0,0.0,93,0.00,,,0.00,WSDL version 420,2013-08-31 02:09:00,
2013-08-30 22:15:00,70.3,68.4,29.88,WSW,248,0.0,0.0,93,0.00,,,0.00,WSDL version 420,2013-08-31 02:15:00,
2013-08-30 22:21:00,69.9,67.8,29.88,WSW,248,0.0,0.0,93,0.00,,,0.00,WSDL version 420,2013-08-31 02:21:00,
2013-08-30 22:27:00,70.2,68.5,29.88,WSW,248,0.0,0.0,94,0.00,,,0.00,WSDL version 420,2013-08-31 02:27:00,
2013-08-30 22:33:00,70.3,68.7,29.88,WSW,248,0.0,0.0,94,0.00,,,0.00,WSDL version 420,2013-08-31 02:33:00,
2013-08-30 22:39:00,70.3,68.7,29.88,WSW,248,0.0,0.0,94,0.00,,,0.00,WSDL version 420,2013-08-31 02:39:00,
2013-08-30 22:45:00,70.3,68.7,29.88,WSW,248,0.0,0.0,94,0.00,,,0.00,WSDL version 420,2013-08-31 02:45:00,
2013-08-30 22:51:00,70.4,68.7,29.88,WSW,248,0.0,0.0,94,0.00,,,0.00,WSDL version 420,2013-08-31 02:51:00,
2013-08-30 22:57:00,70.3,68.7,29.88,WSW,248,0.0,0.0,94,0.00,,,0.00,WSDL version 420,2013-08-31 02:57:00,
2013-08-30 23:03:00,70.3,68.7,29.88,WSW,248,0.0,0.0,94,0.00,,,0.00,WSDL version 420,2013-08-31 03:03:00,
2013-08-30 23:09:00,70.3,68.7,29.88,WSW,248,0.0,0.0,94,0.00,,,0.00,WSDL version 420,2013-08-31 03:09:00,
2013-08-30 23:15:00,70.2,68.5,29.88,WSW,248,0.0,0.0,94,0.00,,,0.00,WSDL version 420,2013-08-31 03:15:00,
2013-08-30 23:21:00,70.1,68.4,29.88,WSW,248,0.0,0.0,94,0.00,,,0.00,WSDL version 420,2013-08-31 03:21:00,
2013-08-30 23:27:00,69.9,68.1,29.88,WSW,248,0.0,1.1,94,0.00,,,0.00,WSDL version 420,2013-08-31 03:27:00,
2013-08-30 23:33:00,70.3,68.6,29.88,WSW,248,0.0,0.0,94,0.00,,,0.00,WSDL version 420,2013-08-31 03:33:00,
2013-08-30 23:39:00,70.5,68.8,29.88,WSW,248,0.0,0.0,94,0.00,,,0.00,WSDL version 420,2013-08-31 03:39:00,
2013-08-30 23:45:00,70.3,68.7,29.88,WSW,248,0.5,2.7,94,0.00,,,0.00,WSDL version 420,2013-08-31 03:45:00,
2013-08-30 23:51:00,70.4,68.8,29.88,WSW,248,1.1,4.0,94,0.00,,,0.00,WSDL version 420,2013-08-31 03:51:00,
2013-08-30 23:57:00,70.3,68.7,29.85,WSW,248,0.0,2.0,94,0.00,,,0.00,WSDL version 420,2013-08-31 03:57:00,